Time;durP1;ratioP1;P1;durP2;ratioP2;P2;SDS_P1;SDS_P2;PMS_P1;PMS_P2;Temp;Humidity;BMP_temperature;BMP_pressure;BME280_temperature;BME280_humidity;BME280_pressure;Samples;Min_cycle;Max_cycle;Signal;HPM_P1;HPM_P2
2023/06/20 00:09:17;;;;;;;7.18;4.75;;;;;;;;;;20996488;28;20052;-69
2023/06/20 00:19:18;;;;;;;8.20;4.03;;;;;;;;;;20996001;28;20044;-68
2023/06/20 00:29:19;;;;;;;6.05;4.30;;;;;;;;;;20995697;28;20051;-69
2023/06/20 00:39:20;;;;;;;6.25;4.53;;;;;;;;;;20993986;28;20506;-69
2023/06/20 00:49:21;;;;;;;10.98;5.00;;;;;;;;;;21001546;28;20485;-69
2023/06/20 00:59:23;;;;;;;7.10;4.90;;;;;;;;;;21009825;28;20076;-69
2023/06/20 01:09:29;;;;;;;9.65;5.13;;;;;;;;;;21009086;28;20048;-68
2023/06/20 01:19:48;;;;;;;7.17;4.93;;;;;;;;;;21008270;28;20055;-68
2023/06/20 01:29:52;;;;;;;11.10;5.75;;;;;;;;;;21007354;28;20547;-69
2023/06/20 01:39:55;;;;;;;8.27;5.30;;;;;;;;;;21007111;28;20051;-69
2023/06/20 01:49:57;;;;;;;10.02;5.47;;;;;;;;;;21004703;28;20054;-69
2023/06/20 01:59:59;;;;;;;8.50;5.03;;;;;;;;;;21004457;28;20076;-70
2023/06/20 02:10:00;;;;;;;6.70;4.72;;;;;;;;;;21004361;28;20154;-70
2023/06/20 02:20:04;;;;;;;7.70;5.03;;;;;;;;;;21003928;28;20474;-69
2023/06/20 02:30:07;;;;;;;8.85;4.95;;;;;;;;;;21001903;28;20048;-68
2023/06/20 02:40:09;;;;;;;6.60;4.63;;;;;;;;;;21000948;28;20048;-69
2023/06/20 02:50:10;;;;;;;5.53;4.10;;;;;;;;;;21001275;28;20089;-69
2023/06/20 03:00:11;;;;;;;9.65;3.83;;;;;;;;;;21000423;28;20070;-69
2023/06/20 03:10:13;;;;;;;4.57;3.67;;;;;;;;;;20998984;28;20486;-69
2023/06/20 03:20:14;;;;;;;7.18;3.55;;;;;;;;;;20999082;28;20076;-69
2023/06/20 03:30:15;;;;;;;5.68;3.38;;;;;;;;;;20997823;28;20493;-69
2023/06/20 03:40:16;;;;;;;4.65;3.20;;;;;;;;;;20997803;28;20119;-69
2023/06/20 03:50:18;;;;;;;3.83;2.90;;;;;;;;;;20997596;28;20048;-68
2023/06/20 04:00:19;;;;;;;4.90;2.67;;;;;;;;;;20997078;28;20525;-69
2023/06/20 04:10:20;;;;;;;4.63;2.90;;;;;;;;;;20996483;28;20508;-69
2023/06/20 04:20:21;;;;;;;6.97;3.08;;;;;;;;;;20996538;28;20490;-68
2023/06/20 04:30:23;;;;;;;5.00;3.08;;;;;;;;;;21012016;28;20056;-68
2023/06/20 04:40:24;;;;;;;3.63;2.38;;;;;;;;;;21011240;28;20429;-69
2023/06/20 04:50:26;;;;;;;4.40;2.55;;;;;;;;;;21010777;28;20512;-68
2023/06/20 05:00:27;;;;;;;5.40;2.97;;;;;;;;;;21009586;28;20532;-69
2023/06/20 05:10:29;;;;;;;3.92;2.65;;;;;;;;;;21008804;28;20515;-69
2023/06/20 05:20:30;;;;;;;5.32;2.88;;;;;;;;;;21008034;28;20040;-69
2023/06/20 05:30:31;;;;;;;3.72;2.45;;;;;;;;;;21007194;28;20048;-69
2023/06/20 05:40:32;;;;;;;4.50;2.88;;;;;;;;;;21005394;28;20041;-69
2023/06/20 05:50:33;;;;;;;7.78;2.80;;;;;;;;;;21005986;28;20117;-69
2023/06/20 06:00:34;;;;;;;5.18;2.92;;;;;;;;;;21005356;28;20052;-69
2023/06/20 06:10:35;;;;;;;5.80;3.25;;;;;;;;;;21004631;28;20051;-69
2023/06/20 06:20:36;;;;;;;4.05;2.92;;;;;;;;;;21003387;28;20040;-69
2023/06/20 06:30:38;;;;;;;4.63;3.15;;;;;;;;;;21002205;28;20076;-69
2023/06/20 06:40:39;;;;;;;4.95;3.05;;;;;;;;;;21001539;28;20119;-68
2023/06/20 06:50:41;;;;;;;5.20;3.30;;;;;;;;;;21000573;28;20101;-69
2023/06/20 07:00:42;;;;;;;5.78;3.35;;;;;;;;;;20999561;28;20494;-68
2023/06/20 07:10:43;;;;;;;5.05;3.15;;;;;;;;;;20997658;28;20041;-69
2023/06/20 07:20:45;;;;;;;6.43;3.38;;;;;;;;;;20997963;28;20557;-69
2023/06/20 07:30:46;;;;;;;3.50;2.30;;;;;;;;;;20996083;28;20053;-69
2023/06/20 07:40:47;;;;;;;4.07;2.88;;;;;;;;;;20996206;28;20120;-68
2023/06/20 07:50:48;;;;;;;3.90;2.28;;;;;;;;;;20995961;28;20048;-68
2023/06/20 08:00:49;;;;;;;6.03;3.97;;;;;;;;;;20995094;28;20045;-69
2023/06/20 08:10:51;;;;;;;6.38;2.38;;;;;;;;;;20996453;28;20041;-68
2023/06/20 08:20:52;;;;;;;5.38;2.63;;;;;;;;;;20993468;28;20053;-69
2023/06/20 08:30:53;;;;;;;3.58;2.33;;;;;;;;;;20995014;28;20049;-69
2023/06/20 08:40:54;;;;;;;5.28;3.03;;;;;;;;;;20992232;28;20051;-67
2023/06/20 08:50:56;;;;;;;4.93;2.47;;;;;;;;;;20994774;28;20036;-68
2023/06/20 09:00:57;;;;;;;3.88;2.50;;;;;;;;;;20992775;28;20055;-68
2023/06/20 09:11:08;;;;;;;5.78;3.13;;;;;;;;;;20999567;28;20383;-68
2023/06/20 09:21:16;;;;;;;3.42;2.38;;;;;;;;;;21007842;28;20489;-69
2023/06/20 09:31:19;;;;;;;4.85;2.78;;;;;;;;;;21005824;28;20066;-69
2023/06/20 09:41:20;;;;;;;3.70;2.78;;;;;;;;;;21006141;28;20119;-68
2023/06/20 09:51:22;;;;;;;4.80;2.67;;;;;;;;;;21005910;28;20437;-69
2023/06/20 10:01:23;;;;;;;6.53;2.42;;;;;;;;;;21004573;28;20474;-68
2023/06/20 10:11:27;;;;;;;5.65;2.08;;;;;;;;;;21002535;28;20041;-68
2023/06/20 10:21:47;;;;;;;3.53;2.40;;;;;;;;;;21000703;28;20048;-67
2023/06/20 10:32:02;;;;;;;4.40;2.03;;;;;;;;;;20998897;28;20467;-64
2023/06/20 10:42:07;;;;;;;3.47;2.25;;;;;;;;;;20998720;28;20555;-78
2023/06/20 10:52:08;;;;;;;4.03;2.42;;;;;;;;;;21001144;28;20113;-69
2023/06/20 11:02:11;;;;;;;3.40;1.80;;;;;;;;;;20999499;28;20538;-70
2023/06/20 11:12:12;;;;;;;9.93;4.45;;;;;;;;;;21017917;28;20044;-67
2023/06/20 11:22:13;;;;;;;7.78;5.32;;;;;;;;;;21004376;28;20076;-69
2023/06/20 11:32:14;;;;;;;5.05;2.97;;;;;;;;;;21007585;28;20131;-64
2023/06/20 11:42:16;;;;;;;5.40;3.00;;;;;;;;;;21080299;28;20051;-67
2023/06/20 11:52:27;;;;;;;5.53;2.63;;;;;;;;;;21080311;28;20044;-68
2023/06/20 12:02:29;;;;;;;4.75;2.90;;;;;;;;;;21080120;28;20062;-68
2023/06/20 12:12:31;;;;;;;4.20;2.60;;;;;;;;;;21079777;28;20075;-68
2023/06/20 12:22:33;;;;;;;4.82;2.45;;;;;;;;;;21079560;28;20527;-68
2023/06/20 12:32:34;;;;;;;6.35;2.58;;;;;;;;;;21078232;28;20052;-68
2023/06/20 12:42:36;;;;;;;5.53;3.50;;;;;;;;;;21080014;28;20176;-69
2023/06/20 12:52:37;;;;;;;3.33;2.35;;;;;;;;;;21092340;28;20123;-69
2023/06/20 13:02:38;;;;;;;3.65;2.47;;;;;;;;;;21092103;28;20067;-68
2023/06/20 13:12:40;;;;;;;2.90;2.30;;;;;;;;;;21091901;28;20072;-69
2023/06/20 13:22:41;;;;;;;4.22;2.47;;;;;;;;;;21091819;28;20040;-68
2023/06/20 13:32:43;;;;;;;4.88;3.10;;;;;;;;;;21090322;28;20127;-70
2023/06/20 13:42:48;;;;;;;4.85;2.60;;;;;;;;;;21088944;28;20048;-69
2023/06/20 13:52:49;;;;;;;2.70;2.00;;;;;;;;;;21088350;28;20393;-69
2023/06/20 14:02:50;;;;;;;3.67;2.42;;;;;;;;;;21087982;28;20469;-69
2023/06/20 14:12:51;;;;;;;2.63;1.95;;;;;;;;;;21087768;28;20453;-69
2023/06/20 14:22:53;;;;;;;3.20;2.40;;;;;;;;;;21086767;28;20094;-70
2023/06/20 14:32:54;;;;;;;3.30;1.98;;;;;;;;;;21085367;28;20051;-70
2023/06/20 14:42:55;;;;;;;4.28;2.08;;;;;;;;;;21084333;28;20089;-70
2023/06/20 14:52:57;;;;;;;5.80;2.70;;;;;;;;;;21084441;28;20416;-69
2023/06/20 15:02:58;;;;;;;2.53;1.73;;;;;;;;;;21083846;28;20481;-69
2023/06/20 15:12:59;;;;;;;5.63;2.30;;;;;;;;;;21083125;28;20043;-69
2023/06/20 15:23:00;;;;;;;3.53;2.30;;;;;;;;;;21082462;28;20109;-69
2023/06/20 15:33:03;;;;;;;2.75;1.92;;;;;;;;;;21080132;28;20421;-70
2023/06/20 15:43:05;;;;;;;5.50;3.30;;;;;;;;;;21080023;28;20048;-62
2023/06/20 15:53:07;;;;;;;5.97;2.10;;;;;;;;;;21079810;28;20447;-59
2023/06/20 16:03:08;;;;;;;4.82;2.47;;;;;;;;;;21078422;28;20087;-58
2023/06/20 16:13:10;;;;;;;3.67;1.92;;;;;;;;;;21078809;28;20044;-57
2023/06/20 16:23:11;;;;;;;5.90;2.30;;;;;;;;;;21090054;28;20059;-59
2023/06/20 16:33:13;;;;;;;2.67;1.50;;;;;;;;;;21095325;28;20509;-57
2023/06/20 16:43:14;;;;;;;3.28;2.00;;;;;;;;;;21095448;28;20051;-57
2023/06/20 16:53:15;;;;;;;4.45;1.70;;;;;;;;;;21094436;28;20552;-57
2023/06/20 17:03:16;;;;;;;2.88;1.75;;;;;;;;;;21093405;28;20044;-58
2023/06/20 17:13:18;;;;;;;3.97;1.88;;;;;;;;;;21092673;28;20518;-59
2023/06/20 17:23:19;;;;;;;6.10;2.67;;;;;;;;;;21090474;28;20040;-58
2023/06/20 17:33:20;;;;;;;6.05;2.50;;;;;;;;;;21089350;28;20048;-60
2023/06/20 17:43:21;;;;;;;4.15;2.22;;;;;;;;;;21090395;28;20048;-65
2023/06/20 17:53:22;;;;;;;3.67;2.08;;;;;;;;;;21088954;28;20040;-64
2023/06/20 18:03:23;;;;;;;5.30;2.28;;;;;;;;;;21088807;28;20123;-64
2023/06/20 18:13:25;;;;;;;5.72;3.60;;;;;;;;;;21087297;28;20046;-62
2023/06/20 18:23:26;;;;;;;3.55;2.17;;;;;;;;;;21086261;28;20127;-63
2023/06/20 18:33:27;;;;;;;4.35;2.38;;;;;;;;;;21084875;28;20131;-63
2023/06/20 18:43:28;;;;;;;5.47;2.75;;;;;;;;;;21084311;28;20044;-63
2023/06/20 18:53:29;;;;;;;3.42;1.83;;;;;;;;;;21083636;28;20225;-64
2023/06/20 19:03:30;;;;;;;3.17;2.03;;;;;;;;;;21083323;28;20085;-64
2023/06/20 19:13:31;;;;;;;4.53;2.65;;;;;;;;;;21082354;28;20055;-68
2023/06/20 19:23:32;;;;;;;15.70;3.45;;;;;;;;;;21081334;28;20105;-68
2023/06/20 19:33:34;;;;;;;3.67;1.67;;;;;;;;;;21081362;28;20462;-67
2023/06/20 19:43:35;;;;;;;4.15;2.55;;;;;;;;;;21082733;28;20148;-68
2023/06/20 19:53:36;;;;;;;5.07;3.00;;;;;;;;;;21113857;28;20051;-68
2023/06/20 20:03:37;;;;;;;4.43;2.10;;;;;;;;;;21081333;28;20401;-68
2023/06/20 20:13:38;;;;;;;5.65;2.38;;;;;;;;;;21078463;28;20509;-69
2023/06/20 20:23:39;;;;;;;4.80;1.98;;;;;;;;;;21079311;28;20052;-69
2023/06/20 20:33:41;;;;;;;3.47;1.85;;;;;;;;;;21078092;28;20123;-68
2023/06/20 20:43:42;;;;;;;2.80;1.98;;;;;;;;;;21078962;28;20047;-69
2023/06/20 20:53:43;;;;;;;7.75;4.28;;;;;;;;;;21077951;28;20115;-69
2023/06/20 21:03:44;;;;;;;3.47;2.17;;;;;;;;;;21080671;28;20048;-69
2023/06/20 21:13:46;;;;;;;3.65;2.05;;;;;;;;;;21091684;28;20047;-69
2023/06/20 21:23:47;;;;;;;2.58;1.55;;;;;;;;;;21090634;28;20044;-68
2023/06/20 21:33:48;;;;;;;2.53;1.45;;;;;;;;;;21090820;28;20182;-69
2023/06/20 21:43:49;;;;;;;7.18;4.65;;;;;;;;;;21091014;28;20493;-68
2023/06/20 21:53:50;;;;;;;17.05;9.48;;;;;;;;;;21087760;28;20040;-68
2023/06/20 22:03:51;;;;;;;4.50;2.00;;;;;;;;;;21087523;28;20044;-68
2023/06/20 22:13:52;;;;;;;3.45;2.05;;;;;;;;;;21086621;28;20050;-68
2023/06/20 22:23:53;;;;;;;4.80;2.20;;;;;;;;;;21086848;28;20052;-69
2023/06/20 22:33:54;;;;;;;4.40;2.85;;;;;;;;;;21085857;28;20052;-69
2023/06/20 22:43:55;;;;;;;5.70;2.08;;;;;;;;;;21086046;28;20056;-69
2023/06/20 22:54:00;;;;;;;3.03;1.60;;;;;;;;;;21085072;28;20055;-68
2023/06/20 23:04:01;;;;;;;6.43;2.58;;;;;;;;;;21084417;28;20048;-69
2023/06/20 23:14:03;;;;;;;3.78;2.35;;;;;;;;;;21082984;28;20043;-69
2023/06/20 23:24:04;;;;;;;2.65;1.80;;;;;;;;;;21081881;28;20040;-69
2023/06/20 23:34:06;;;;;;;7.18;3.20;;;;;;;;;;21080715;28;20048;-68
2023/06/20 23:44:12;;;;;;;3.72;2.35;;;;;;;;;;21082011;28;20477;-68
2023/06/20 23:54:13;;;;;;;14.57;8.07;;;;;;;;;;21080226;28;20124;-67
